createdAt,value
2022-11-13T00:02:07.115Z,21.80
2022-11-13T00:04:38.287Z,20.50
2022-11-13T00:07:09.188Z,22.10
2022-11-13T00:09:40.447Z,25.50
2022-11-13T00:12:11.580Z,32.40
2022-11-13T00:14:42.477Z,28.80
2022-11-13T00:17:13.575Z,34.60
2022-11-13T00:19:44.446Z,29.90
2022-11-13T00:22:15.635Z,31.50
2022-11-13T00:24:47.040Z,27.20
2022-11-13T00:27:18.003Z,27.70
2022-11-13T00:29:49.075Z,29.90
2022-11-13T00:32:20.538Z,25.90
2022-11-13T00:34:51.814Z,23.20
2022-11-13T00:37:22.843Z,23.60
2022-11-13T00:39:59.409Z,18.30
2022-11-13T00:42:31.090Z,21.70
2022-11-13T00:45:01.943Z,15.90
2022-11-13T00:47:33.520Z,19.80
2022-11-13T00:50:04.666Z,16.30
2022-11-13T00:52:35.741Z,17.10
2022-11-13T00:55:08.315Z,16.90
2022-11-13T00:57:39.174Z,16.80
2022-11-13T01:00:13.358Z,17.50
2022-11-13T01:02:44.429Z,15.00
2022-11-13T01:07:44.898Z,12.80
2022-11-13T01:10:15.999Z,12.50
2022-11-13T01:12:47.504Z,14.30
2022-11-13T01:15:18.677Z,12.70
2022-11-13T01:17:50.319Z,13.40
2022-11-13T01:20:21.632Z,10.40
2022-11-13T01:22:52.715Z,8.70
2022-11-13T01:25:23.776Z,9.30
2022-11-13T01:27:54.993Z,10.70
2022-11-13T01:30:25.947Z,11.60
2022-11-13T01:32:57.260Z,8.50
2022-11-13T01:35:28.305Z,9.30
2022-11-13T01:37:59.319Z,8.40
2022-11-13T01:40:31.021Z,9.40
2022-11-13T01:43:12.918Z,8.10
2022-11-13T01:46:09.775Z,8.90
2022-11-13T01:48:43.336Z,10.20
2022-11-13T01:51:20.068Z,7.20
2022-11-13T01:53:51.605Z,13.50
2022-11-13T01:56:22.672Z,11.10
2022-11-13T01:59:00.128Z,14.70
2022-11-13T02:01:31.233Z,11.50
2022-11-13T02:04:02.146Z,11.40
2022-11-13T02:06:38.008Z,13.00
2022-11-13T02:09:10.985Z,16.70
2022-11-13T02:11:42.612Z,16.70
2022-11-13T02:16:47.600Z,16.90
2022-11-13T02:19:23.202Z,14.30
2022-11-13T02:22:00.734Z,15.60
2022-11-13T02:24:37.692Z,14.50
2022-11-13T02:27:14.375Z,13.30
2022-11-13T02:29:45.303Z,11.60
2022-11-13T02:32:16.228Z,15.40
2022-11-13T02:34:47.729Z,14.30
2022-11-13T02:37:18.554Z,11.90
2022-11-13T02:39:49.998Z,12.20
2022-11-13T02:42:20.946Z,15.20
2022-11-13T02:44:52.058Z,19.30
2022-11-13T02:47:23.058Z,12.10
2022-11-13T02:49:53.960Z,19.10
2022-11-13T02:52:24.989Z,14.90
2022-11-13T02:54:55.941Z,17.40
2022-11-13T02:57:26.837Z,13.20
2022-11-13T02:59:57.711Z,13.50
2022-11-13T03:02:28.619Z,13.90
2022-11-13T03:05:14.763Z,18.60
2022-11-13T03:07:46.425Z,15.80
2022-11-13T03:10:17.795Z,15.40
2022-11-13T03:12:48.902Z,14.70
2022-11-13T03:15:20.227Z,11.30
2022-11-13T03:17:50.976Z,13.70
2022-11-13T03:20:22.106Z,13.80
2022-11-13T03:22:53.186Z,10.60
2022-11-13T03:25:24.410Z,12.90
2022-11-13T03:27:55.127Z,10.60
2022-11-13T03:30:26.587Z,10.10
2022-11-13T03:32:58.573Z,13.70
2022-11-13T03:35:33.630Z,9.90
2022-11-13T03:38:07.243Z,10.20
2022-11-13T03:40:37.998Z,10.70
2022-11-13T03:43:08.929Z,12.90
2022-11-13T03:45:39.834Z,10.30
2022-11-13T03:48:11.579Z,9.80
2022-11-13T03:50:45.572Z,10.50
2022-11-13T03:53:17.393Z,10.80
2022-11-13T03:58:18.355Z,7.80
2022-11-13T04:00:50.082Z,8.70
2022-11-13T04:03:21.079Z,11.50
2022-11-13T04:05:52.699Z,9.60
2022-11-13T04:08:23.827Z,10.70
2022-11-13T04:10:55.071Z,11.20
2022-11-13T04:13:25.999Z,8.90
2022-11-13T04:15:57.329Z,11.50
2022-11-13T04:18:28.491Z,12.60
2022-11-13T04:21:03.702Z,6.90
2022-11-13T04:23:34.747Z,9.10
2022-11-13T04:26:06.101Z,9.50
2022-11-13T04:28:39.684Z,11.10
2022-11-13T04:31:10.595Z,13.20
2022-11-13T04:33:41.423Z,15.40
2022-11-13T04:36:12.807Z,11.00
2022-11-13T04:38:43.845Z,15.80
2022-11-13T04:41:44.641Z,13.90
2022-11-13T04:44:15.723Z,15.10
2022-11-13T04:46:47.027Z,11.30
2022-11-13T04:49:17.884Z,10.20
2022-11-13T04:51:48.776Z,13.00
2022-11-13T04:54:24.295Z,12.30
2022-11-13T04:56:58.465Z,14.80
2022-11-13T04:59:29.406Z,12.40
2022-11-13T05:02:00.463Z,9.70
2022-11-13T05:04:31.657Z,14.40
2022-11-13T05:07:02.786Z,11.80
2022-11-13T05:09:33.626Z,12.80
2022-11-13T05:12:07.976Z,12.70
2022-11-13T05:14:39.943Z,10.20
2022-11-13T05:17:13.151Z,10.80
2022-11-13T05:19:44.153Z,9.90
2022-11-13T05:22:15.168Z,11.80
2022-11-13T05:24:46.332Z,11.40
2022-11-13T05:27:17.886Z,11.30
2022-11-13T05:29:48.886Z,11.90
2022-11-13T05:32:19.878Z,14.40
2022-11-13T05:34:50.797Z,15.30
2022-11-13T05:37:22.128Z,14.50
2022-11-13T05:39:52.954Z,22.40
2022-11-13T05:42:23.880Z,21.50
2022-11-13T05:44:54.920Z,15.60
2022-11-13T05:47:25.868Z,19.40
2022-11-13T05:49:57.244Z,16.10
2022-11-13T05:52:28.175Z,19.10
2022-11-13T05:54:59.163Z,12.90
2022-11-13T05:57:30.112Z,14.60
2022-11-13T06:00:01.195Z,11.40
2022-11-13T06:02:32.394Z,13.60
2022-11-13T06:05:03.307Z,17.20
2022-11-13T06:07:34.213Z,12.60
2022-11-13T06:10:05.489Z,12.50
2022-11-13T06:12:36.306Z,8.20
2022-11-13T06:15:08.532Z,9.90
2022-11-13T06:17:39.565Z,12.10
2022-11-13T06:20:11.849Z,10.30
2022-11-13T06:22:42.691Z,14.30
2022-11-13T06:25:13.567Z,12.40
2022-11-13T06:27:44.550Z,11.10
2022-11-13T06:30:17.055Z,15.10
2022-11-13T06:32:52.557Z,13.80
2022-11-13T06:35:23.414Z,11.00
2022-11-13T06:37:55.460Z,10.70
2022-11-13T06:40:26.434Z,11.00
2022-11-13T06:42:57.339Z,10.20
2022-11-13T06:45:28.109Z,13.40
2022-11-13T06:47:58.945Z,9.30
2022-11-13T06:50:29.779Z,13.90
2022-11-13T06:53:00.586Z,9.80
2022-11-13T06:55:31.478Z,11.30
2022-11-13T06:58:02.662Z,16.40
2022-11-13T07:00:36.999Z,18.50
2022-11-13T07:03:16.074Z,19.20
2022-11-13T07:05:47.508Z,14.60
2022-11-13T07:08:19.310Z,14.70
2022-11-13T07:10:57.639Z,12.20
2022-11-13T07:13:29.931Z,11.90
2022-11-13T07:16:15.899Z,11.20
2022-11-13T07:18:52.613Z,10.80
2022-11-13T07:21:24.265Z,11.30
2022-11-13T07:23:56.027Z,12.70
2022-11-13T07:26:27.047Z,16.70
2022-11-13T07:28:58.115Z,25.60
2022-11-13T07:31:29.418Z,17.50
2022-11-13T07:34:00.655Z,16.20
2022-11-13T07:36:31.730Z,12.60
2022-11-13T07:39:02.794Z,28.00
2022-11-13T07:41:33.806Z,19.30
2022-11-13T07:44:08.992Z,14.20
2022-11-13T07:46:40.549Z,14.40
2022-11-13T07:49:11.295Z,13.00
2022-11-13T07:51:42.326Z,13.70
2022-11-13T07:54:13.470Z,16.60
2022-11-13T07:56:44.329Z,12.80
2022-11-13T07:59:15.338Z,18.10
2022-11-13T08:01:46.055Z,21.00
2022-11-13T08:04:16.959Z,25.00
2022-11-13T08:06:48.057Z,18.70
2022-11-13T08:09:19.084Z,37.40
2022-11-13T08:11:50.141Z,43.30
2022-11-13T08:14:20.984Z,34.90
2022-11-13T08:16:51.860Z,26.40
2022-11-13T08:19:22.715Z,30.20
2022-11-13T08:21:53.636Z,27.90
2022-11-13T08:24:24.547Z,25.70
2022-11-13T08:26:55.672Z,34.20
2022-11-13T08:29:26.718Z,39.20
2022-11-13T08:34:27.402Z,29.60
2022-11-13T08:36:58.610Z,30.40
2022-11-13T08:39:29.730Z,25.30
2022-11-13T08:42:00.567Z,26.10
2022-11-13T08:44:31.935Z,34.40
2022-11-13T08:49:32.525Z,64.90
2022-11-13T08:52:03.345Z,52.30
2022-11-13T08:54:34.377Z,45.80
2022-11-13T08:57:06.200Z,36.00
2022-11-13T08:59:37.548Z,47.20
2022-11-13T09:04:39.285Z,54.30
2022-11-13T09:07:11.643Z,47.60
2022-11-13T09:09:42.745Z,58.60
2022-11-13T09:12:13.852Z,57.10
2022-11-13T09:14:44.724Z,56.40
2022-11-13T09:17:17.086Z,59.90
2022-11-13T09:19:48.192Z,67.90
2022-11-13T09:22:19.303Z,62.80
2022-11-13T09:24:50.261Z,74.40
2022-11-13T09:27:21.250Z,57.20
2022-11-13T09:29:55.607Z,61.00
2022-11-13T09:32:26.865Z,55.40
2022-11-13T09:34:57.936Z,49.60
2022-11-13T09:37:29.142Z,59.70
2022-11-13T09:39:59.920Z,57.50
2022-11-13T09:42:32.328Z,56.50
2022-11-13T09:45:08.077Z,65.50
2022-11-13T09:47:43.595Z,71.20
2022-11-13T09:50:23.552Z,52.30
2022-11-13T09:52:55.791Z,43.60
2022-11-13T09:55:30.084Z,36.30
2022-11-13T09:58:10.391Z,42.90
2022-11-13T10:00:41.724Z,45.20
2022-11-13T10:04:00.685Z,33.40
2022-11-13T10:06:31.077Z,34.50
2022-11-13T10:09:08.611Z,35.70
2022-11-13T10:14:18.015Z,37.40
2022-11-13T10:16:55.954Z,35.30
2022-11-13T10:19:33.494Z,37.70
2022-11-13T10:22:32.141Z,28.80
2022-11-13T10:25:12.734Z,30.30
2022-11-13T10:27:44.993Z,32.20
2022-11-13T10:30:20.099Z,29.70
2022-11-13T10:32:51.779Z,31.70
2022-11-13T10:35:53.668Z,27.30
2022-11-13T10:38:30.382Z,30.00
2022-11-13T10:41:15.236Z,31.00
2022-11-13T10:43:56.842Z,29.00
2022-11-13T10:46:30.693Z,26.70
2022-11-13T10:49:12.481Z,34.30
2022-11-13T10:51:43.651Z,30.60
2022-11-13T10:57:02.492Z,27.10
2022-11-13T10:59:43.197Z,24.90
2022-11-13T11:02:25.494Z,28.90
2022-11-13T11:05:07.682Z,27.10
2022-11-13T11:07:42.478Z,32.30
2022-11-13T11:10:27.502Z,33.30
2022-11-13T11:13:01.838Z,34.10
2022-11-13T11:15:42.460Z,31.60
2022-11-13T11:18:25.644Z,36.50
2022-11-13T11:20:58.652Z,32.00
2022-11-13T11:23:36.825Z,34.20
2022-11-13T11:26:16.148Z,31.10
2022-11-13T11:28:50.682Z,33.20
2022-11-13T11:31:26.986Z,32.80
2022-11-13T11:34:02.174Z,36.60
2022-11-13T11:36:36.795Z,39.90
2022-11-13T11:39:26.525Z,35.00
2022-11-13T11:42:06.123Z,32.80
2022-11-13T11:44:44.620Z,29.80
2022-11-13T11:47:18.797Z,33.50
2022-11-13T11:49:50.697Z,30.00
2022-11-13T11:52:38.928Z,30.00
2022-11-13T11:55:25.796Z,35.70
2022-11-13T11:58:06.160Z,30.40
2022-11-13T12:00:42.853Z,32.20
2022-11-13T12:03:45.796Z,27.00
2022-11-13T12:06:25.372Z,29.80
2022-11-13T12:09:07.275Z,26.70
2022-11-13T12:11:46.366Z,28.80
2022-11-13T12:14:30.512Z,31.00
2022-11-13T12:17:17.568Z,27.50
2022-11-13T12:19:59.978Z,29.10
2022-11-13T12:22:43.514Z,27.70
2022-11-13T12:25:25.672Z,25.90
2022-11-13T12:28:04.975Z,26.50
2022-11-13T12:30:43.706Z,26.30
2022-11-13T12:33:28.731Z,29.10
2022-11-13T12:36:00.384Z,22.60
2022-11-13T12:38:40.738Z,28.80
2022-11-13T12:41:23.694Z,29.10
2022-11-13T12:44:11.061Z,22.70
2022-11-13T12:46:43.423Z,27.50
2022-11-13T12:49:30.520Z,28.30
2022-11-13T12:52:03.624Z,28.40
2022-11-13T12:54:38.350Z,25.20
2022-11-13T12:57:20.957Z,27.30
2022-11-13T12:59:54.546Z,22.80
2022-11-13T13:02:40.038Z,27.70
2022-11-13T13:05:21.464Z,26.00
2022-11-13T13:08:16.457Z,26.60
2022-11-13T13:11:00.517Z,26.60
2022-11-13T13:13:40.282Z,28.00
2022-11-13T13:16:12.133Z,25.50
2022-11-13T13:18:43.259Z,25.20
2022-11-13T13:21:16.520Z,25.30
2022-11-13T13:23:49.771Z,24.60
2022-11-13T13:26:23.191Z,20.80
2022-11-13T13:28:55.946Z,26.40
2022-11-13T13:31:37.240Z,28.00
2022-11-13T13:34:32.345Z,24.60
2022-11-13T13:37:13.506Z,25.60
2022-11-13T13:39:59.293Z,19.60
2022-11-13T13:42:47.008Z,23.50
2022-11-13T13:45:36.421Z,21.40
2022-11-13T13:48:12.421Z,22.30
2022-11-13T13:50:47.167Z,23.10
2022-11-13T13:53:23.740Z,23.10
2022-11-13T13:55:57.555Z,21.60
2022-11-13T13:58:30.881Z,17.20
2022-11-13T14:01:18.458Z,22.40
2022-11-13T14:03:50.114Z,23.30
2022-11-13T14:06:23.597Z,27.60
2022-11-13T14:08:54.876Z,26.70
2022-11-13T14:11:29.716Z,26.10
2022-11-13T14:14:11.540Z,24.70
2022-11-13T14:16:52.981Z,27.40
2022-11-13T14:19:24.301Z,27.20
2022-11-13T14:21:58.651Z,26.20
2022-11-13T14:24:34.113Z,22.70
2022-11-13T14:27:09.753Z,27.40
2022-11-13T14:29:48.059Z,33.40
2022-11-13T14:32:22.664Z,29.00
2022-11-13T14:34:58.132Z,31.30
2022-11-13T14:37:33.472Z,27.00
2022-11-13T14:40:07.924Z,24.60
2022-11-13T14:42:44.875Z,29.60
2022-11-13T14:45:21.905Z,39.30
2022-11-13T14:48:03.734Z,29.40
2022-11-13T14:50:37.457Z,35.60
2022-11-13T14:53:10.910Z,49.70
2022-11-13T14:55:53.778Z,41.30
2022-11-13T14:58:32.818Z,35.20
2022-11-13T15:01:17.119Z,43.40
2022-11-13T15:03:49.611Z,55.20
2022-11-13T15:06:23.040Z,42.00
2022-11-13T15:08:58.254Z,41.10
2022-11-13T15:11:30.358Z,44.90
2022-11-13T15:14:04.396Z,44.80
2022-11-13T15:16:36.352Z,35.60
2022-11-13T15:19:12.390Z,34.30
2022-11-13T15:21:51.065Z,53.70
2022-11-13T15:24:38.073Z,29.00
2022-11-13T15:27:10.841Z,35.70
2022-11-13T15:29:41.676Z,26.20
2022-11-13T15:32:14.373Z,32.50
2022-11-13T15:34:45.575Z,36.20
2022-11-13T15:37:18.643Z,32.80
2022-11-13T15:39:50.198Z,35.20
2022-11-13T15:42:28.640Z,32.90
2022-11-13T15:44:59.713Z,27.90
2022-11-13T15:47:32.754Z,28.60
2022-11-13T15:50:20.459Z,35.40
2022-11-13T15:52:53.136Z,34.40
2022-11-13T15:55:28.721Z,36.90
2022-11-13T15:58:00.427Z,31.70
2022-11-13T16:00:32.837Z,28.20
2022-11-13T16:03:10.739Z,26.30
2022-11-13T16:05:42.013Z,27.80
2022-11-13T16:08:16.919Z,41.20
2022-11-13T16:10:48.174Z,36.30
2022-11-13T16:13:19.247Z,26.50
2022-11-13T16:15:50.134Z,27.70
2022-11-13T16:18:26.998Z,26.40
2022-11-13T16:20:58.224Z,25.20
2022-11-13T16:23:29.583Z,24.70
2022-11-13T16:26:04.544Z,20.80
2022-11-13T16:28:52.859Z,28.00
2022-11-13T16:31:27.731Z,29.10
2022-11-13T16:33:58.765Z,24.80
2022-11-13T16:36:30.086Z,28.20
2022-11-13T16:39:01.178Z,28.00
2022-11-13T16:41:33.846Z,27.20
2022-11-13T16:44:04.885Z,26.80
2022-11-13T16:46:38.352Z,22.90
2022-11-13T16:49:18.903Z,24.50
2022-11-13T16:51:51.666Z,25.90
2022-11-13T16:54:22.608Z,37.60
2022-11-13T16:56:53.814Z,30.30
2022-11-13T17:01:58.428Z,26.20
2022-11-13T17:04:29.542Z,27.70
2022-11-13T17:07:00.719Z,29.80
2022-11-13T17:09:31.740Z,24.90
2022-11-13T17:14:35.003Z,24.90
2022-11-13T17:17:07.008Z,26.90
2022-11-13T17:19:41.106Z,22.70
2022-11-13T17:22:12.436Z,28.00
2022-11-13T17:27:12.885Z,26.50
2022-11-13T17:29:43.940Z,24.10
2022-11-13T17:32:14.848Z,24.40
2022-11-13T17:34:46.216Z,26.30
2022-11-13T17:39:46.717Z,23.40
2022-11-13T17:42:17.785Z,20.30
2022-11-13T17:44:48.844Z,27.60
2022-11-13T17:47:19.977Z,25.40
2022-11-13T17:49:51.029Z,32.80
2022-11-13T17:52:22.170Z,27.80
2022-11-13T17:54:53.101Z,26.60
2022-11-13T17:57:27.094Z,28.10
2022-11-13T17:59:58.305Z,27.60
2022-11-13T18:02:29.268Z,22.80
2022-11-13T18:05:01.478Z,30.00
2022-11-13T18:07:33.228Z,24.40
2022-11-13T18:10:04.057Z,27.80
2022-11-13T18:12:34.901Z,30.30
2022-11-13T18:15:06.106Z,30.90
2022-11-13T18:17:37.190Z,31.30
2022-11-13T18:27:40.101Z,29.10
2022-11-13T18:30:13.637Z,30.40
2022-11-13T18:32:44.558Z,28.50
2022-11-13T18:35:15.714Z,47.70
2022-11-13T18:40:16.279Z,33.30
2022-11-13T18:42:47.338Z,37.40
2022-11-13T18:45:18.447Z,134.10
2022-11-13T18:47:49.709Z,66.80
2022-11-13T18:50:22.280Z,95.20
2022-11-13T18:52:55.935Z,55.30
2022-11-13T18:55:27.040Z,39.30
2022-11-13T18:57:58.363Z,75.70
2022-11-13T19:00:29.304Z,41.80
2022-11-13T19:03:00.398Z,39.80
2022-11-13T19:05:31.252Z,30.00
2022-11-13T19:08:02.135Z,36.20
2022-11-13T19:10:34.594Z,32.10
2022-11-13T19:13:05.525Z,26.80
2022-11-13T19:15:38.644Z,29.70
2022-11-13T19:18:10.183Z,37.70
2022-11-13T19:20:42.922Z,44.80
2022-11-13T19:23:14.031Z,49.00
2022-11-13T19:25:44.943Z,46.00
2022-11-13T19:28:16.227Z,39.40
2022-11-13T19:30:49.114Z,37.00
2022-11-13T19:33:20.035Z,36.60
2022-11-13T19:35:51.897Z,29.30
2022-11-13T19:38:23.177Z,36.20
2022-11-13T19:40:54.635Z,29.70
2022-11-13T19:43:25.690Z,28.60
2022-11-13T19:45:56.657Z,38.80
2022-11-13T19:48:27.825Z,29.30
2022-11-13T19:53:33.736Z,30.00
2022-11-13T19:56:05.290Z,19.50
2022-11-13T19:58:36.743Z,32.10
2022-11-13T20:01:12.854Z,26.30
2022-11-13T20:03:43.934Z,30.90
2022-11-13T20:06:17.594Z,28.60
2022-11-13T20:08:48.467Z,28.00
2022-11-13T20:11:19.558Z,22.20
2022-11-13T20:13:50.765Z,60.50
2022-11-13T20:16:23.521Z,73.60
2022-11-13T20:18:57.089Z,108.00
2022-11-13T20:21:29.797Z,62.20
2022-11-13T20:24:01.739Z,60.20
2022-11-13T20:26:33.507Z,52.70
2022-11-13T20:29:04.819Z,41.90
2022-11-13T20:34:05.237Z,38.90
2022-11-13T20:36:36.205Z,33.20
2022-11-13T20:39:09.468Z,31.00
2022-11-13T20:41:40.572Z,35.90
2022-11-13T20:44:12.489Z,24.20
2022-11-13T20:46:43.905Z,32.70
2022-11-13T20:49:14.719Z,34.70
2022-11-13T20:51:45.719Z,28.20
2022-11-13T20:56:46.431Z,27.70
2022-11-13T20:59:17.412Z,29.40
2022-11-13T21:01:48.457Z,30.80
2022-11-13T21:04:19.554Z,31.00
2022-11-13T21:09:19.967Z,24.90
2022-11-13T21:11:51.042Z,24.10
2022-11-13T21:14:22.046Z,28.80
2022-11-13T21:16:52.931Z,23.20
2022-11-13T21:19:24.785Z,49.00
2022-11-13T21:21:55.712Z,29.90
2022-11-13T21:24:26.723Z,28.90
2022-11-13T21:26:57.738Z,25.40
2022-11-13T21:29:28.727Z,22.70
2022-11-13T21:31:59.559Z,28.50
2022-11-13T21:34:31.245Z,21.50
2022-11-13T21:37:02.339Z,22.50
2022-11-13T21:39:33.248Z,17.50
2022-11-13T21:42:04.460Z,20.10
2022-11-13T21:44:35.621Z,22.20
2022-11-13T21:47:06.783Z,18.60
2022-11-13T21:49:37.723Z,18.40
2022-11-13T21:52:09.102Z,16.70
2022-11-13T21:57:09.347Z,12.70
2022-11-13T21:59:40.493Z,19.20
2022-11-13T22:02:13.891Z,34.00
2022-11-13T22:04:45.460Z,46.40
2022-11-13T22:07:16.497Z,23.50
2022-11-13T22:09:47.354Z,28.10
2022-11-13T22:12:18.270Z,23.40
2022-11-13T22:14:49.564Z,20.50
2022-11-13T22:17:21.501Z,18.80
2022-11-13T22:19:52.533Z,20.60
2022-11-13T22:22:23.578Z,16.00
2022-11-13T22:24:54.720Z,17.30
2022-11-13T22:27:25.605Z,18.90
2022-11-13T22:29:56.396Z,19.50
2022-11-13T22:32:27.740Z,18.00
2022-11-13T22:34:58.628Z,19.20
2022-11-13T22:37:29.449Z,17.60
2022-11-13T22:40:00.296Z,17.50
2022-11-13T22:42:31.167Z,19.40
2022-11-13T22:45:04.434Z,14.80
2022-11-13T22:47:41.998Z,16.70
2022-11-13T22:50:13.498Z,15.60
2022-11-13T22:55:13.675Z,17.60
2022-11-13T22:57:44.405Z,16.50
2022-11-13T23:00:16.995Z,15.10
2022-11-13T23:02:48.332Z,14.80
2022-11-13T23:05:19.732Z,21.70
2022-11-13T23:07:51.051Z,19.20
2022-11-13T23:10:25.440Z,15.50
2022-11-13T23:12:56.535Z,19.80
2022-11-13T23:15:27.753Z,20.70
2022-11-13T23:17:58.887Z,16.20
2022-11-13T23:20:29.724Z,18.50
2022-11-13T23:23:00.837Z,16.00
2022-11-13T23:25:33.120Z,18.50
2022-11-13T23:28:04.716Z,24.50
2022-11-13T23:30:35.892Z,21.70
2022-11-13T23:33:06.853Z,18.10
2022-11-13T23:35:37.994Z,21.60
2022-11-13T23:38:08.853Z,18.20
2022-11-13T23:40:39.695Z,24.50
2022-11-13T23:43:10.981Z,22.60
2022-11-13T23:45:42.026Z,29.40
2022-11-13T23:48:13.077Z,49.40
2022-11-13T23:50:44.112Z,27.60
2022-11-13T23:53:15.988Z,19.80
2022-11-13T23:55:47.070Z,12.10
